sensor_id;sensor_type;location;lat;lon;timestamp;temperature;humidity
42031;DHT22;27709;52.036;5.906;2023-03-13T00:01:34;9.60;99.90
42031;DHT22;27709;52.036;5.906;2023-03-13T00:04:00;9.60;99.90
42031;DHT22;27709;52.036;5.906;2023-03-13T00:06:26;9.50;99.90
42031;DHT22;27709;52.036;5.906;2023-03-13T00:08:53;9.50;99.90
42031;DHT22;27709;52.036;5.906;2023-03-13T00:11:18;9.50;99.90
42031;DHT22;27709;52.036;5.906;2023-03-13T00:13:44;9.50;99.90
42031;DHT22;27709;52.036;5.906;2023-03-13T00:16:10;9.50;99.90
42031;DHT22;27709;52.036;5.906;2023-03-13T00:18:36;9.50;99.90
42031;DHT22;27709;52.036;5.906;2023-03-13T00:21:06;9.50;99.90
42031;DHT22;27709;52.036;5.906;2023-03-13T00:23:32;9.50;99.90
42031;DHT22;27709;52.036;5.906;2023-03-13T00:26:01;9.50;99.90
42031;DHT22;27709;52.036;5.906;2023-03-13T00:28:28;9.50;99.90
42031;DHT22;27709;52.036;5.906;2023-03-13T00:31:04;9.60;99.90
42031;DHT22;27709;52.036;5.906;2023-03-13T00:33:33;9.50;99.90
42031;DHT22;27709;52.036;5.906;2023-03-13T00:36:00;9.60;99.90
42031;DHT22;27709;52.036;5.906;2023-03-13T00:38:26;9.60;99.90
42031;DHT22;27709;52.036;5.906;2023-03-13T00:40:59;9.60;99.90
42031;DHT22;27709;52.036;5.906;2023-03-13T00:43:25;9.60;99.90
42031;DHT22;27709;52.036;5.906;2023-03-13T00:45:50;9.60;99.90
42031;DHT22;27709;52.036;5.906;2023-03-13T00:48:16;9.60;99.90
42031;DHT22;27709;52.036;5.906;2023-03-13T00:50:41;9.60;99.90
42031;DHT22;27709;52.036;5.906;2023-03-13T00:53:07;9.60;99.90
42031;DHT22;27709;52.036;5.906;2023-03-13T00:55:32;9.60;99.90
42031;DHT22;27709;52.036;5.906;2023-03-13T00:57:57;9.60;99.90
42031;DHT22;27709;52.036;5.906;2023-03-13T01:00:23;9.60;99.90
42031;DHT22;27709;52.036;5.906;2023-03-13T01:02:48;9.60;99.90
42031;DHT22;27709;52.036;5.906;2023-03-13T01:05:14;9.60;99.90
42031;DHT22;27709;52.036;5.906;2023-03-13T01:07:39;9.60;99.90
42031;DHT22;27709;52.036;5.906;2023-03-13T01:10:05;9.60;99.90
42031;DHT22;27709;52.036;5.906;2023-03-13T01:12:30;9.60;99.90
42031;DHT22;27709;52.036;5.906;2023-03-13T01:14:56;9.60;99.90
42031;DHT22;27709;52.036;5.906;2023-03-13T01:17:21;9.50;99.90
42031;DHT22;27709;52.036;5.906;2023-03-13T01:19:47;9.60;99.90
42031;DHT22;27709;52.036;5.906;2023-03-13T01:22:12;9.60;99.90
42031;DHT22;27709;52.036;5.906;2023-03-13T01:24:37;9.60;99.90
42031;DHT22;27709;52.036;5.906;2023-03-13T01:27:03;9.50;99.90
42031;DHT22;27709;52.036;5.906;2023-03-13T01:29:28;9.60;99.90
42031;DHT22;27709;52.036;5.906;2023-03-13T01:31:54;9.60;99.90
42031;DHT22;27709;52.036;5.906;2023-03-13T01:34:19;9.60;99.90
42031;DHT22;27709;52.036;5.906;2023-03-13T01:36:44;9.60;99.90
42031;DHT22;27709;52.036;5.906;2023-03-13T01:39:14;9.60;99.90
42031;DHT22;27709;52.036;5.906;2023-03-13T01:41:40;9.60;99.90
42031;DHT22;27709;52.036;5.906;2023-03-13T01:44:11;9.60;99.90
42031;DHT22;27709;52.036;5.906;2023-03-13T01:46:43;9.60;99.90
42031;DHT22;27709;52.036;5.906;2023-03-13T01:49:10;9.60;99.90
42031;DHT22;27709;52.036;5.906;2023-03-13T01:54:09;9.70;99.90
42031;DHT22;27709;52.036;5.906;2023-03-13T01:56:49;9.70;99.90
42031;DHT22;27709;52.036;5.906;2023-03-13T01:59:16;9.70;99.90
42031;DHT22;27709;52.036;5.906;2023-03-13T02:01:42;9.70;99.90
42031;DHT22;27709;52.036;5.906;2023-03-13T02:04:08;9.70;99.90
42031;DHT22;27709;52.036;5.906;2023-03-13T02:06:34;9.80;99.90
42031;DHT22;27709;52.036;5.906;2023-03-13T02:09:02;9.70;99.90
42031;DHT22;27709;52.036;5.906;2023-03-13T02:11:46;9.80;99.90
42031;DHT22;27709;52.036;5.906;2023-03-13T02:14:13;9.80;99.90
42031;DHT22;27709;52.036;5.906;2023-03-13T02:16:39;9.80;99.90
42031;DHT22;27709;52.036;5.906;2023-03-13T02:19:15;9.80;99.90
42031;DHT22;27709;52.036;5.906;2023-03-13T02:22:03;9.90;99.90
42031;DHT22;27709;52.036;5.906;2023-03-13T02:25:08;9.90;99.90
42031;DHT22;27709;52.036;5.906;2023-03-13T02:27:24;9.90;99.90
42031;DHT22;27709;52.036;5.906;2023-03-13T02:29:49;10.00;99.90
42031;DHT22;27709;52.036;5.906;2023-03-13T02:32:15;10.00;99.90
42031;DHT22;27709;52.036;5.906;2023-03-13T02:34:41;10.00;99.90
42031;DHT22;27709;52.036;5.906;2023-03-13T02:37:08;10.00;99.90
42031;DHT22;27709;52.036;5.906;2023-03-13T02:39:38;10.10;99.90
42031;DHT22;27709;52.036;5.906;2023-03-13T02:42:06;10.10;99.90
42031;DHT22;27709;52.036;5.906;2023-03-13T02:44:35;10.10;99.90
42031;DHT22;27709;52.036;5.906;2023-03-13T02:47:01;10.10;99.90
42031;DHT22;27709;52.036;5.906;2023-03-13T02:49:27;10.20;99.90
42031;DHT22;27709;52.036;5.906;2023-03-13T02:51:54;10.20;99.90
42031;DHT22;27709;52.036;5.906;2023-03-13T02:54:23;10.20;99.90
42031;DHT22;27709;52.036;5.906;2023-03-13T02:56:51;10.20;99.90
42031;DHT22;27709;52.036;5.906;2023-03-13T02:59:19;10.30;99.90
42031;DHT22;27709;52.036;5.906;2023-03-13T03:01:44;10.30;99.90
42031;DHT22;27709;52.036;5.906;2023-03-13T03:04:10;10.30;99.90
42031;DHT22;27709;52.036;5.906;2023-03-13T03:06:35;10.40;99.90
42031;DHT22;27709;52.036;5.906;2023-03-13T03:09:01;10.40;99.90
42031;DHT22;27709;52.036;5.906;2023-03-13T03:11:27;10.40;99.90
42031;DHT22;27709;52.036;5.906;2023-03-13T03:13:54;10.40;99.90
42031;DHT22;27709;52.036;5.906;2023-03-13T03:16:19;10.50;99.90
42031;DHT22;27709;52.036;5.906;2023-03-13T03:18:46;10.50;99.90
42031;DHT22;27709;52.036;5.906;2023-03-13T03:21:12;10.50;99.90
42031;DHT22;27709;52.036;5.906;2023-03-13T03:23:37;10.50;99.90
42031;DHT22;27709;52.036;5.906;2023-03-13T03:26:03;10.60;99.90
42031;DHT22;27709;52.036;5.906;2023-03-13T03:28:29;10.60;99.90
42031;DHT22;27709;52.036;5.906;2023-03-13T03:30:54;10.70;99.90
42031;DHT22;27709;52.036;5.906;2023-03-13T03:33:20;10.70;99.90
42031;DHT22;27709;52.036;5.906;2023-03-13T03:35:46;10.70;99.90
42031;DHT22;27709;52.036;5.906;2023-03-13T03:38:11;10.80;99.90
42031;DHT22;27709;52.036;5.906;2023-03-13T03:40:37;10.80;99.90
42031;DHT22;27709;52.036;5.906;2023-03-13T03:43:02;10.80;99.90
42031;DHT22;27709;52.036;5.906;2023-03-13T03:45:28;10.80;99.90
42031;DHT22;27709;52.036;5.906;2023-03-13T03:47:53;10.90;99.90
42031;DHT22;27709;52.036;5.906;2023-03-13T03:50:19;10.90;99.90
42031;DHT22;27709;52.036;5.906;2023-03-13T03:52:46;10.90;99.90
42031;DHT22;27709;52.036;5.906;2023-03-13T03:55:11;11.00;99.90
42031;DHT22;27709;52.036;5.906;2023-03-13T03:57:37;11.00;99.90
42031;DHT22;27709;52.036;5.906;2023-03-13T04:00:03;11.00;99.90
42031;DHT22;27709;52.036;5.906;2023-03-13T04:02:29;11.10;99.90
42031;DHT22;27709;52.036;5.906;2023-03-13T04:04:54;11.00;99.90
42031;DHT22;27709;52.036;5.906;2023-03-13T04:07:20;11.10;99.90
42031;DHT22;27709;52.036;5.906;2023-03-13T04:09:45;11.10;99.90
42031;DHT22;27709;52.036;5.906;2023-03-13T04:12:11;11.10;99.90
42031;DHT22;27709;52.036;5.906;2023-03-13T04:14:36;11.20;99.90
42031;DHT22;27709;52.036;5.906;2023-03-13T04:17:02;11.20;99.90
42031;DHT22;27709;52.036;5.906;2023-03-13T04:19:27;11.20;99.90
42031;DHT22;27709;52.036;5.906;2023-03-13T04:21:52;11.20;99.90
42031;DHT22;27709;52.036;5.906;2023-03-13T04:24:18;11.30;99.90
42031;DHT22;27709;52.036;5.906;2023-03-13T04:26:43;11.30;99.90
42031;DHT22;27709;52.036;5.906;2023-03-13T04:29:09;11.30;99.90
42031;DHT22;27709;52.036;5.906;2023-03-13T04:31:34;11.30;99.90
42031;DHT22;27709;52.036;5.906;2023-03-13T04:34:00;11.30;99.90
42031;DHT22;27709;52.036;5.906;2023-03-13T04:36:25;11.30;99.90
42031;DHT22;27709;52.036;5.906;2023-03-13T04:38:51;11.40;99.90
42031;DHT22;27709;52.036;5.906;2023-03-13T04:41:16;11.40;99.90
42031;DHT22;27709;52.036;5.906;2023-03-13T04:43:41;11.40;99.90
42031;DHT22;27709;52.036;5.906;2023-03-13T04:46:07;11.50;99.90
42031;DHT22;27709;52.036;5.906;2023-03-13T04:48:32;11.40;99.90
42031;DHT22;27709;52.036;5.906;2023-03-13T04:50:58;11.50;99.90
42031;DHT22;27709;52.036;5.906;2023-03-13T04:53:23;11.50;99.90
42031;DHT22;27709;52.036;5.906;2023-03-13T04:55:49;11.50;99.90
42031;DHT22;27709;52.036;5.906;2023-03-13T04:58:15;11.50;99.90
42031;DHT22;27709;52.036;5.906;2023-03-13T05:00:40;11.60;99.90
42031;DHT22;27709;52.036;5.906;2023-03-13T05:03:06;11.60;99.90
42031;DHT22;27709;52.036;5.906;2023-03-13T05:05:33;11.60;99.90
42031;DHT22;27709;52.036;5.906;2023-03-13T05:07:59;11.60;99.90
42031;DHT22;27709;52.036;5.906;2023-03-13T05:10:25;11.60;99.90
42031;DHT22;27709;52.036;5.906;2023-03-13T05:12:50;11.60;99.90
42031;DHT22;27709;52.036;5.906;2023-03-13T05:15:16;11.60;99.90
42031;DHT22;27709;52.036;5.906;2023-03-13T05:17:41;11.70;99.90
42031;DHT22;27709;52.036;5.906;2023-03-13T05:20:07;11.70;99.90
42031;DHT22;27709;52.036;5.906;2023-03-13T05:22:35;11.70;99.90
42031;DHT22;27709;52.036;5.906;2023-03-13T05:25:01;11.70;99.90
42031;DHT22;27709;52.036;5.906;2023-03-13T05:27:26;11.70;99.90
42031;DHT22;27709;52.036;5.906;2023-03-13T05:29:52;11.80;99.90
42031;DHT22;27709;52.036;5.906;2023-03-13T05:32:17;11.80;99.90
42031;DHT22;27709;52.036;5.906;2023-03-13T05:34:43;11.80;99.90
42031;DHT22;27709;52.036;5.906;2023-03-13T05:37:08;11.80;99.90
42031;DHT22;27709;52.036;5.906;2023-03-13T05:39:33;11.80;99.90
42031;DHT22;27709;52.036;5.906;2023-03-13T05:41:59;11.80;99.90
42031;DHT22;27709;52.036;5.906;2023-03-13T05:44:24;11.90;99.90
42031;DHT22;27709;52.036;5.906;2023-03-13T05:46:50;11.90;99.90
42031;DHT22;27709;52.036;5.906;2023-03-13T05:49:15;11.90;99.90
42031;DHT22;27709;52.036;5.906;2023-03-13T05:51:41;12.00;99.90
42031;DHT22;27709;52.036;5.906;2023-03-13T05:54:06;12.00;99.90
42031;DHT22;27709;52.036;5.906;2023-03-13T05:56:32;12.00;99.90
42031;DHT22;27709;52.036;5.906;2023-03-13T05:58:57;12.00;99.90
42031;DHT22;27709;52.036;5.906;2023-03-13T06:01:22;12.00;99.90
42031;DHT22;27709;52.036;5.906;2023-03-13T06:03:48;12.00;99.90
42031;DHT22;27709;52.036;5.906;2023-03-13T06:06:13;12.00;99.90
42031;DHT22;27709;52.036;5.906;2023-03-13T06:08:40;12.00;99.90
42031;DHT22;27709;52.036;5.906;2023-03-13T06:11:06;12.00;99.90
42031;DHT22;27709;52.036;5.906;2023-03-13T06:13:31;12.00;99.90
42031;DHT22;27709;52.036;5.906;2023-03-13T06:15:57;12.00;99.90
42031;DHT22;27709;52.036;5.906;2023-03-13T06:18:23;12.10;99.90
42031;DHT22;27709;52.036;5.906;2023-03-13T06:20:49;12.10;99.90
42031;DHT22;27709;52.036;5.906;2023-03-13T06:23:15;12.10;99.90
42031;DHT22;27709;52.036;5.906;2023-03-13T06:25:40;12.10;99.90
42031;DHT22;27709;52.036;5.906;2023-03-13T06:28:06;12.10;99.90
42031;DHT22;27709;52.036;5.906;2023-03-13T06:30:31;12.10;99.90
42031;DHT22;27709;52.036;5.906;2023-03-13T06:32:57;12.10;99.90
42031;DHT22;27709;52.036;5.906;2023-03-13T06:35:22;12.20;99.90
42031;DHT22;27709;52.036;5.906;2023-03-13T06:37:48;12.20;99.90
42031;DHT22;27709;52.036;5.906;2023-03-13T06:40:13;12.20;99.90
42031;DHT22;27709;52.036;5.906;2023-03-13T06:42:39;12.20;99.90
42031;DHT22;27709;52.036;5.906;2023-03-13T06:45:04;12.20;99.90
42031;DHT22;27709;52.036;5.906;2023-03-13T06:47:30;12.20;99.90
42031;DHT22;27709;52.036;5.906;2023-03-13T06:49:56;12.30;99.90
42031;DHT22;27709;52.036;5.906;2023-03-13T06:52:22;12.30;99.90
42031;DHT22;27709;52.036;5.906;2023-03-13T06:54:47;12.30;99.90
42031;DHT22;27709;52.036;5.906;2023-03-13T06:57:15;12.30;99.90
42031;DHT22;27709;52.036;5.906;2023-03-13T06:59:41;12.30;99.90
42031;DHT22;27709;52.036;5.906;2023-03-13T07:02:08;12.30;99.90
42031;DHT22;27709;52.036;5.906;2023-03-13T07:04:33;12.30;99.90
42031;DHT22;27709;52.036;5.906;2023-03-13T07:06:59;12.40;99.90
42031;DHT22;27709;52.036;5.906;2023-03-13T07:09:24;12.40;99.90
42031;DHT22;27709;52.036;5.906;2023-03-13T07:11:50;12.40;99.90
42031;DHT22;27709;52.036;5.906;2023-03-13T07:14:15;12.40;99.90
42031;DHT22;27709;52.036;5.906;2023-03-13T07:16:41;12.50;99.90
42031;DHT22;27709;52.036;5.906;2023-03-13T07:19:10;12.50;99.90
42031;DHT22;27709;52.036;5.906;2023-03-13T07:21:38;12.50;99.90
42031;DHT22;27709;52.036;5.906;2023-03-13T07:24:04;12.50;99.90
42031;DHT22;27709;52.036;5.906;2023-03-13T07:26:29;12.60;99.90
42031;DHT22;27709;52.036;5.906;2023-03-13T07:28:55;12.60;99.90
42031;DHT22;27709;52.036;5.906;2023-03-13T07:31:20;12.60;99.90
42031;DHT22;27709;52.036;5.906;2023-03-13T07:33:48;12.70;99.90
42031;DHT22;27709;52.036;5.906;2023-03-13T07:36:14;12.70;99.90
42031;DHT22;27709;52.036;5.906;2023-03-13T07:38:39;12.70;99.90
42031;DHT22;27709;52.036;5.906;2023-03-13T07:41:05;12.80;99.90
42031;DHT22;27709;52.036;5.906;2023-03-13T07:43:31;12.80;99.90
42031;DHT22;27709;52.036;5.906;2023-03-13T07:45:58;12.90;99.90
42031;DHT22;27709;52.036;5.906;2023-03-13T07:48:24;12.90;99.90
42031;DHT22;27709;52.036;5.906;2023-03-13T07:50:50;12.90;99.90
42031;DHT22;27709;52.036;5.906;2023-03-13T07:53:16;13.00;99.90
42031;DHT22;27709;52.036;5.906;2023-03-13T07:55:52;13.00;99.90
42031;DHT22;27709;52.036;5.906;2023-03-13T07:58:18;13.00;99.90
42031;DHT22;27709;52.036;5.906;2023-03-13T08:00:43;12.90;99.90
42031;DHT22;27709;52.036;5.906;2023-03-13T08:03:09;12.90;99.90
42031;DHT22;27709;52.036;5.906;2023-03-13T08:05:34;12.90;99.90
42031;DHT22;27709;52.036;5.906;2023-03-13T08:08:00;12.80;99.90
42031;DHT22;27709;52.036;5.906;2023-03-13T08:10:25;12.80;99.90
42031;DHT22;27709;52.036;5.906;2023-03-13T08:12:51;12.80;99.90
42031;DHT22;27709;52.036;5.906;2023-03-13T08:15:16;12.80;99.90
42031;DHT22;27709;52.036;5.906;2023-03-13T08:17:45;12.70;99.90
42031;DHT22;27709;52.036;5.906;2023-03-13T08:20:11;12.70;99.90
42031;DHT22;27709;52.036;5.906;2023-03-13T08:22:36;12.70;99.90
42031;DHT22;27709;52.036;5.906;2023-03-13T08:25:02;12.70;99.90
42031;DHT22;27709;52.036;5.906;2023-03-13T08:27:28;12.70;99.90
42031;DHT22;27709;52.036;5.906;2023-03-13T08:29:54;12.80;99.90
42031;DHT22;27709;52.036;5.906;2023-03-13T08:32:19;12.80;99.90
42031;DHT22;27709;52.036;5.906;2023-03-13T08:34:46;12.90;99.90
42031;DHT22;27709;52.036;5.906;2023-03-13T08:37:14;13.00;99.90
42031;DHT22;27709;52.036;5.906;2023-03-13T08:39:40;13.10;99.90
42031;DHT22;27709;52.036;5.906;2023-03-13T08:42:06;13.10;99.90
42031;DHT22;27709;52.036;5.906;2023-03-13T08:44:32;13.20;99.90
42031;DHT22;27709;52.036;5.906;2023-03-13T08:46:57;13.20;99.90
42031;DHT22;27709;52.036;5.906;2023-03-13T08:49:24;13.20;99.90
42031;DHT22;27709;52.036;5.906;2023-03-13T08:51:49;13.20;99.90
42031;DHT22;27709;52.036;5.906;2023-03-13T08:54:15;13.30;99.90
42031;DHT22;27709;52.036;5.906;2023-03-13T08:56:42;13.30;99.90
42031;DHT22;27709;52.036;5.906;2023-03-13T08:59:08;13.40;99.90
42031;DHT22;27709;52.036;5.906;2023-03-13T09:01:35;13.50;99.90
42031;DHT22;27709;52.036;5.906;2023-03-13T09:04:01;13.50;99.90
42031;DHT22;27709;52.036;5.906;2023-03-13T09:06:26;13.60;99.90
42031;DHT22;27709;52.036;5.906;2023-03-13T09:08:54;13.60;99.90
42031;DHT22;27709;52.036;5.906;2023-03-13T09:11:20;13.70;99.90
42031;DHT22;27709;52.036;5.906;2023-03-13T09:13:46;13.70;99.90
42031;DHT22;27709;52.036;5.906;2023-03-13T09:16:13;13.80;99.90
42031;DHT22;27709;52.036;5.906;2023-03-13T09:18:39;13.80;99.90
42031;DHT22;27709;52.036;5.906;2023-03-13T09:21:06;13.90;99.90
42031;DHT22;27709;52.036;5.906;2023-03-13T09:23:31;13.90;99.90
42031;DHT22;27709;52.036;5.906;2023-03-13T09:25:57;13.90;99.90
42031;DHT22;27709;52.036;5.906;2023-03-13T09:28:23;13.90;99.90
42031;DHT22;27709;52.036;5.906;2023-03-13T09:30:49;13.90;99.90
42031;DHT22;27709;52.036;5.906;2023-03-13T09:33:18;13.90;99.90
42031;DHT22;27709;52.036;5.906;2023-03-13T09:35:47;13.90;99.90
42031;DHT22;27709;52.036;5.906;2023-03-13T09:38:15;13.90;99.90
42031;DHT22;27709;52.036;5.906;2023-03-13T09:40:44;14.10;99.90
42031;DHT22;27709;52.036;5.906;2023-03-13T09:43:18;14.20;99.90
42031;DHT22;27709;52.036;5.906;2023-03-13T09:45:45;14.40;99.90
42031;DHT22;27709;52.036;5.906;2023-03-13T09:48:22;14.80;99.90
42031;DHT22;27709;52.036;5.906;2023-03-13T09:51:00;15.10;99.90
42031;DHT22;27709;52.036;5.906;2023-03-13T09:54:12;15.20;99.90
42031;DHT22;27709;52.036;5.906;2023-03-13T09:56:18;15.20;99.90
42031;DHT22;27709;52.036;5.906;2023-03-13T09:58:50;15.00;99.90
42031;DHT22;27709;52.036;5.906;2023-03-13T10:01:16;15.00;99.90
42031;DHT22;27709;52.036;5.906;2023-03-13T10:06:24;15.10;99.90
42031;DHT22;27709;52.036;5.906;2023-03-13T10:08:51;15.20;99.90
42031;DHT22;27709;52.036;5.906;2023-03-13T10:11:27;15.20;99.90
42031;DHT22;27709;52.036;5.906;2023-03-13T10:14:04;15.20;99.90
42031;DHT22;27709;52.036;5.906;2023-03-13T10:16:40;15.30;99.90
42031;DHT22;27709;52.036;5.906;2023-03-13T10:19:10;15.30;99.90
42031;DHT22;27709;52.036;5.906;2023-03-13T10:21:39;15.40;99.90
42031;DHT22;27709;52.036;5.906;2023-03-13T10:24:13;15.40;99.90
42031;DHT22;27709;52.036;5.906;2023-03-13T10:26:41;15.40;99.90
42031;DHT22;27709;52.036;5.906;2023-03-13T10:29:20;15.40;99.90
42031;DHT22;27709;52.036;5.906;2023-03-13T10:31:55;15.50;99.90
42031;DHT22;27709;52.036;5.906;2023-03-13T10:34:21;15.60;99.90
42031;DHT22;27709;52.036;5.906;2023-03-13T10:36:48;15.60;99.90
42031;DHT22;27709;52.036;5.906;2023-03-13T10:39:21;15.60;99.90
42031;DHT22;27709;52.036;5.906;2023-03-13T10:41:47;15.60;99.90
42031;DHT22;27709;52.036;5.906;2023-03-13T10:44:20;15.60;99.90
42031;DHT22;27709;52.036;5.906;2023-03-13T10:46:47;15.70;99.90
42031;DHT22;27709;52.036;5.906;2023-03-13T10:51:45;15.70;99.90
42031;DHT22;27709;52.036;5.906;2023-03-13T10:54:26;15.70;99.90
42031;DHT22;27709;52.036;5.906;2023-03-13T10:56:52;15.80;99.90
42031;DHT22;27709;52.036;5.906;2023-03-13T10:59:31;15.80;99.90
42031;DHT22;27709;52.036;5.906;2023-03-13T11:01:57;15.90;99.90
42031;DHT22;27709;52.036;5.906;2023-03-13T11:04:34;15.90;99.90
42031;DHT22;27709;52.036;5.906;2023-03-13T11:07:04;16.00;99.90
42031;DHT22;27709;52.036;5.906;2023-03-13T11:09:29;16.30;99.90
42031;DHT22;27709;52.036;5.906;2023-03-13T11:12:00;16.60;99.90
42031;DHT22;27709;52.036;5.906;2023-03-13T11:14:27;16.60;99.90
42031;DHT22;27709;52.036;5.906;2023-03-13T11:16:54;16.70;99.90
42031;DHT22;27709;52.036;5.906;2023-03-13T11:19:27;16.90;99.90
42031;DHT22;27709;52.036;5.906;2023-03-13T11:29:35;17.20;99.90
42031;DHT22;27709;52.036;5.906;2023-03-13T11:32:07;17.30;99.90
42031;DHT22;27709;52.036;5.906;2023-03-13T11:34:39;17.20;99.90
42031;DHT22;27709;52.036;5.906;2023-03-13T11:37:13;17.10;99.90
42031;DHT22;27709;52.036;5.906;2023-03-13T11:47:24;17.50;99.90
42031;DHT22;27709;52.036;5.906;2023-03-13T12:02:43;17.80;99.90
42031;DHT22;27709;52.036;5.906;2023-03-13T12:05:15;17.70;99.90
42031;DHT22;27709;52.036;5.906;2023-03-13T12:07:43;17.60;99.90
42031;DHT22;27709;52.036;5.906;2023-03-13T12:10:12;17.60;99.90
42031;DHT22;27709;52.036;5.906;2023-03-13T12:12:46;17.60;99.90
42031;DHT22;27709;52.036;5.906;2023-03-13T12:15:27;17.50;99.90
42031;DHT22;27709;52.036;5.906;2023-03-13T12:18:38;17.50;99.90
42031;DHT22;27709;52.036;5.906;2023-03-13T12:26:18;17.60;99.90
42031;DHT22;27709;52.036;5.906;2023-03-13T12:28:47;17.30;99.90
42031;DHT22;27709;52.036;5.906;2023-03-13T12:31:26;17.20;99.90
42031;DHT22;27709;52.036;5.906;2023-03-13T12:33:55;17.20;99.90
42031;DHT22;27709;52.036;5.906;2023-03-13T12:41:27;17.50;99.90
42031;DHT22;27709;52.036;5.906;2023-03-13T12:43:54;17.60;99.90
42031;DHT22;27709;52.036;5.906;2023-03-13T12:53:55;17.70;99.90
42031;DHT22;27709;52.036;5.906;2023-03-13T12:59:27;17.70;99.90
42031;DHT22;27709;52.036;5.906;2023-03-13T13:01:55;17.80;99.90
42031;DHT22;27709;52.036;5.906;2023-03-13T13:04:25;17.90;99.90
42031;DHT22;27709;52.036;5.906;2023-03-13T13:11:45;17.90;99.80
42031;DHT22;27709;52.036;5.906;2023-03-13T13:16:45;17.80;99.90
42031;DHT22;27709;52.036;5.906;2023-03-13T13:24:40;17.80;99.80
42031;DHT22;27709;52.036;5.906;2023-03-13T13:27:25;17.80;99.60
42031;DHT22;27709;52.036;5.906;2023-03-13T13:29:52;17.90;99.40
42031;DHT22;27709;52.036;5.906;2023-03-13T13:32:18;18.00;99.90
42031;DHT22;27709;52.036;5.906;2023-03-13T13:34:53;18.10;99.90
42031;DHT22;27709;52.036;5.906;2023-03-13T13:39:46;18.10;99.00
42031;DHT22;27709;52.036;5.906;2023-03-13T13:44:56;18.10;99.20
42031;DHT22;27709;52.036;5.906;2023-03-13T13:47:22;18.10;99.50
42031;DHT22;27709;52.036;5.906;2023-03-13T13:49:53;18.00;99.30
42031;DHT22;27709;52.036;5.906;2023-03-13T13:52:41;17.90;99.00
42031;DHT22;27709;52.036;5.906;2023-03-13T13:57:51;17.80;97.40
42031;DHT22;27709;52.036;5.906;2023-03-13T14:00:26;17.80;97.40
42031;DHT22;27709;52.036;5.906;2023-03-13T14:02:52;17.80;97.20
42031;DHT22;27709;52.036;5.906;2023-03-13T14:05:20;17.70;97.20
42031;DHT22;27709;52.036;5.906;2023-03-13T14:12:53;17.80;96.30
42031;DHT22;27709;52.036;5.906;2023-03-13T14:15:20;17.70;96.60
42031;DHT22;27709;52.036;5.906;2023-03-13T14:17:49;17.70;96.30
42031;DHT22;27709;52.036;5.906;2023-03-13T14:22:50;17.60;97.30
42031;DHT22;27709;52.036;5.906;2023-03-13T14:25:19;17.60;97.30
42031;DHT22;27709;52.036;5.906;2023-03-13T14:27:45;17.50;97.20
42031;DHT22;27709;52.036;5.906;2023-03-13T14:30:13;17.50;97.50
42031;DHT22;27709;52.036;5.906;2023-03-13T14:32:38;17.50;97.70
42031;DHT22;27709;52.036;5.906;2023-03-13T14:35:09;17.50;97.50
42031;DHT22;27709;52.036;5.906;2023-03-13T14:37:40;17.40;98.00
42031;DHT22;27709;52.036;5.906;2023-03-13T14:42:39;17.30;98.60
42031;DHT22;27709;52.036;5.906;2023-03-13T14:47:51;17.30;98.90
42031;DHT22;27709;52.036;5.906;2023-03-13T14:50:19;17.30;98.50
42031;DHT22;27709;52.036;5.906;2023-03-13T14:53:00;17.20;98.50
42031;DHT22;27709;52.036;5.906;2023-03-13T14:55:31;17.20;98.30
42031;DHT22;27709;52.036;5.906;2023-03-13T14:57:58;17.20;98.60
42031;DHT22;27709;52.036;5.906;2023-03-13T15:05:47;17.10;99.20
42031;DHT22;27709;52.036;5.906;2023-03-13T15:08:17;17.10;99.20
42031;DHT22;27709;52.036;5.906;2023-03-13T15:10:43;17.00;98.80
42031;DHT22;27709;52.036;5.906;2023-03-13T15:15:56;16.90;99.30
42031;DHT22;27709;52.036;5.906;2023-03-13T15:18:25;16.90;99.70
42031;DHT22;27709;52.036;5.906;2023-03-13T15:20:55;16.80;99.40
42031;DHT22;27709;52.036;5.906;2023-03-13T15:23:21;16.70;99.60
42031;DHT22;27709;52.036;5.906;2023-03-13T15:25:47;16.70;99.70
42031;DHT22;27709;52.036;5.906;2023-03-13T15:28:14;16.60;99.70
42031;DHT22;27709;52.036;5.906;2023-03-13T15:30:41;16.60;99.90
42031;DHT22;27709;52.036;5.906;2023-03-13T15:33:09;16.60;99.50
42031;DHT22;27709;52.036;5.906;2023-03-13T15:35:36;16.60;99.80
42031;DHT22;27709;52.036;5.906;2023-03-13T15:38:01;16.50;99.80
42031;DHT22;27709;52.036;5.906;2023-03-13T15:40:27;16.50;99.90
42031;DHT22;27709;52.036;5.906;2023-03-13T15:42:56;16.50;99.90
42031;DHT22;27709;52.036;5.906;2023-03-13T15:45:22;16.50;99.90
42031;DHT22;27709;52.036;5.906;2023-03-13T15:47:47;16.50;99.90
42031;DHT22;27709;52.036;5.906;2023-03-13T15:50:17;16.40;99.90
42031;DHT22;27709;52.036;5.906;2023-03-13T15:52:43;16.40;99.90
42031;DHT22;27709;52.036;5.906;2023-03-13T15:55:09;16.30;99.90
42031;DHT22;27709;52.036;5.906;2023-03-13T15:57:35;16.30;99.90
42031;DHT22;27709;52.036;5.906;2023-03-13T16:00:05;16.20;99.90
42031;DHT22;27709;52.036;5.906;2023-03-13T16:02:33;16.20;99.90
42031;DHT22;27709;52.036;5.906;2023-03-13T16:04:58;16.10;99.90
42031;DHT22;27709;52.036;5.906;2023-03-13T16:07:28;16.10;99.90
42031;DHT22;27709;52.036;5.906;2023-03-13T16:09:54;16.10;99.90
42031;DHT22;27709;52.036;5.906;2023-03-13T16:12:21;16.00;99.90
42031;DHT22;27709;52.036;5.906;2023-03-13T16:14:46;16.00;99.90
42031;DHT22;27709;52.036;5.906;2023-03-13T16:17:15;16.00;99.90
42031;DHT22;27709;52.036;5.906;2023-03-13T16:19:53;15.90;99.90
42031;DHT22;27709;52.036;5.906;2023-03-13T16:22:19;15.90;99.90
42031;DHT22;27709;52.036;5.906;2023-03-13T16:24:45;15.90;99.90
42031;DHT22;27709;52.036;5.906;2023-03-13T16:27:11;15.80;99.90
42031;DHT22;27709;52.036;5.906;2023-03-13T16:29:37;15.80;99.90
42031;DHT22;27709;52.036;5.906;2023-03-13T16:32:02;15.80;99.90
42031;DHT22;27709;52.036;5.906;2023-03-13T16:34:28;15.70;99.90
42031;DHT22;27709;52.036;5.906;2023-03-13T16:36:53;15.70;99.90
42031;DHT22;27709;52.036;5.906;2023-03-13T16:39:19;15.60;99.90
42031;DHT22;27709;52.036;5.906;2023-03-13T16:41:44;15.50;99.90
42031;DHT22;27709;52.036;5.906;2023-03-13T16:44:09;15.50;99.90
42031;DHT22;27709;52.036;5.906;2023-03-13T16:49:00;15.30;99.90
42031;DHT22;27709;52.036;5.906;2023-03-13T16:51:26;15.20;99.90
42031;DHT22;27709;52.036;5.906;2023-03-13T16:53:58;15.10;99.90
42031;DHT22;27709;52.036;5.906;2023-03-13T16:56:32;15.10;99.90
42031;DHT22;27709;52.036;5.906;2023-03-13T16:58:59;15.00;99.90
42031;DHT22;27709;52.036;5.906;2023-03-13T17:01:25;14.90;99.90
42031;DHT22;27709;52.036;5.906;2023-03-13T17:03:51;14.90;99.90
42031;DHT22;27709;52.036;5.906;2023-03-13T17:06:21;14.80;99.90
42031;DHT22;27709;52.036;5.906;2023-03-13T17:08:50;14.70;99.90
42031;DHT22;27709;52.036;5.906;2023-03-13T17:14:02;14.50;99.90
42031;DHT22;27709;52.036;5.906;2023-03-13T17:16:29;14.50;99.90
42031;DHT22;27709;52.036;5.906;2023-03-13T17:18:56;14.40;99.90